Sagrada Familia, Brazil
Current Conditions -  °F | °C
As of 8:00 AM on Monday 20 Oct 2014 (Local Time) from SBCH Reporting Station
Scattered Clouds Scattered Clouds  
Wind Chill: 64°   Ceiling: Unl
Heat Index: 64°   Visibility: 6mi
Dew Point: 55°   Wind: 14mph
Humidity: 73%   Direction: 150°SSE
Pressure: 30.09"   Gusts: NA
Location:  27.71°S, 53.14°W
Report Text: SBCH 201100Z 15012KT 9999 SCT006 18/13 Q1019
Loading
Personal Weather Stations






























Interactive Weather Map
Tropical Storm Tracking
New forecast layout! Learn more

10-Day Weather Forecast

Advertisements
Track Severe Weather on mobile